Terminal Aerodrome Forecast
Issued by NWS Pocatello, ID

Home | Current Version | Previous Version | Text Only | Print | Product List | Glossary On
Versions: 1 2 3 4 5 6 7 8 9 10 11 12
000
FTUS45 KPIH 100500
TAFBYI
TAF
KBYI 100520Z 1006/1106 25010G20KT P6SM VCSH SCT110 BKN150
     FM101600 28010G20KT P6SM VCTS SCT100 SCT150CB
     FM110300 VRB06KT P6SM SCT120 BKN200=

USA.gov is the U.S. government's official web portal to all federal, state and local government web resources and services.